sensor_id;sensor_type;location;lat;lon;timestamp;temperature;humidity
4356;DHT22;64374;51.482;7.408;2023-02-18T00:01:47;12.70;99.90
4356;DHT22;64374;51.482;7.408;2023-02-18T00:04:16;12.60;99.90
4356;DHT22;64374;51.482;7.408;2023-02-18T00:06:45;12.60;99.90
4356;DHT22;64374;51.482;7.408;2023-02-18T00:09:14;12.60;99.90
4356;DHT22;64374;51.482;7.408;2023-02-18T00:11:43;12.50;99.90
4356;DHT22;64374;51.482;7.408;2023-02-18T00:14:14;12.50;99.90
4356;DHT22;64374;51.482;7.408;2023-02-18T00:16:43;12.40;99.90
4356;DHT22;64374;51.482;7.408;2023-02-18T00:19:13;12.50;99.90
4356;DHT22;64374;51.482;7.408;2023-02-18T00:21:42;12.50;99.90
4356;DHT22;64374;51.482;7.408;2023-02-18T00:24:13;12.60;99.90
4356;DHT22;64374;51.482;7.408;2023-02-18T00:26:44;12.30;99.90
4356;DHT22;64374;51.482;7.408;2023-02-18T00:29:12;12.30;99.90
4356;DHT22;64374;51.482;7.408;2023-02-18T00:31:41;12.40;99.90
4356;DHT22;64374;51.482;7.408;2023-02-18T00:34:10;12.50;99.90
4356;DHT22;64374;51.482;7.408;2023-02-18T00:36:41;12.40;99.90
4356;DHT22;64374;51.482;7.408;2023-02-18T00:39:10;12.40;99.90
4356;DHT22;64374;51.482;7.408;2023-02-18T00:41:40;12.40;99.90
4356;DHT22;64374;51.482;7.408;2023-02-18T00:44:11;12.50;99.90
4356;DHT22;64374;51.482;7.408;2023-02-18T00:46:40;12.50;99.90
4356;DHT22;64374;51.482;7.408;2023-02-18T00:49:09;12.40;99.90
4356;DHT22;64374;51.482;7.408;2023-02-18T00:51:37;12.50;99.90
4356;DHT22;64374;51.482;7.408;2023-02-18T00:54:06;12.60;99.90
4356;DHT22;64374;51.482;7.408;2023-02-18T00:56:35;12.80;99.90
4356;DHT22;64374;51.482;7.408;2023-02-18T00:59:03;12.60;99.90
4356;DHT22;64374;51.482;7.408;2023-02-18T01:01:33;12.60;99.90
4356;DHT22;64374;51.482;7.408;2023-02-18T01:04:02;12.50;99.90
4356;DHT22;64374;51.482;7.408;2023-02-18T01:06:30;12.40;99.90
4356;DHT22;64374;51.482;7.408;2023-02-18T01:08:59;12.30;99.90
4356;DHT22;64374;51.482;7.408;2023-02-18T01:11:28;12.40;99.90
4356;DHT22;64374;51.482;7.408;2023-02-18T01:13:57;12.50;99.90
4356;DHT22;64374;51.482;7.408;2023-02-18T01:16:25;12.50;99.90
4356;DHT22;64374;51.482;7.408;2023-02-18T01:18:56;12.40;99.90
4356;DHT22;64374;51.482;7.408;2023-02-18T01:21:26;12.30;99.90
4356;DHT22;64374;51.482;7.408;2023-02-18T01:23:54;12.40;99.90
4356;DHT22;64374;51.482;7.408;2023-02-18T01:26:23;12.40;99.90
4356;DHT22;64374;51.482;7.408;2023-02-18T01:28:52;12.40;99.90
4356;DHT22;64374;51.482;7.408;2023-02-18T01:31:20;12.40;99.90
4356;DHT22;64374;51.482;7.408;2023-02-18T01:33:52;12.30;99.90
4356;DHT22;64374;51.482;7.408;2023-02-18T01:36:29;12.20;99.90
4356;DHT22;64374;51.482;7.408;2023-02-18T01:38:59;12.10;99.90
4356;DHT22;64374;51.482;7.408;2023-02-18T01:41:27;12.00;99.90
4356;DHT22;64374;51.482;7.408;2023-02-18T01:44:14;11.90;99.90
4356;DHT22;64374;51.482;7.408;2023-02-18T01:46:44;12.10;99.90
4356;DHT22;64374;51.482;7.408;2023-02-18T01:49:17;12.10;99.90
4356;DHT22;64374;51.482;7.408;2023-02-18T01:51:50;12.00;99.90
4356;DHT22;64374;51.482;7.408;2023-02-18T01:54:25;11.90;99.90
4356;DHT22;64374;51.482;7.408;2023-02-18T01:56:59;11.90;99.90
4356;DHT22;64374;51.482;7.408;2023-02-18T01:59:38;12.00;99.90
4356;DHT22;64374;51.482;7.408;2023-02-18T02:02:10;12.00;99.90
4356;DHT22;64374;51.482;7.408;2023-02-18T02:04:39;11.90;99.90
4356;DHT22;64374;51.482;7.408;2023-02-18T02:07:20;12.10;99.90
4356;DHT22;64374;51.482;7.408;2023-02-18T02:09:55;12.20;99.90
4356;DHT22;64374;51.482;7.408;2023-02-18T02:12:42;12.20;99.90
4356;DHT22;64374;51.482;7.408;2023-02-18T02:15:32;12.20;99.90
4356;DHT22;64374;51.482;7.408;2023-02-18T02:21:24;12.30;99.90
4356;DHT22;64374;51.482;7.408;2023-02-18T02:24:22;12.20;99.90
4356;DHT22;64374;51.482;7.408;2023-02-18T02:27:05;12.30;99.90
4356;DHT22;64374;51.482;7.408;2023-02-18T02:30:24;12.30;99.90
4356;DHT22;64374;51.482;7.408;2023-02-18T02:35:59;12.10;99.90
4356;DHT22;64374;51.482;7.408;2023-02-18T02:38:37;12.10;99.90
4356;DHT22;64374;51.482;7.408;2023-02-18T02:41:20;12.30;99.90
4356;DHT22;64374;51.482;7.408;2023-02-18T02:44:03;12.20;99.90
4356;DHT22;64374;51.482;7.408;2023-02-18T02:46:37;12.30;99.90
4356;DHT22;64374;51.482;7.408;2023-02-18T02:49:16;12.20;99.90
4356;DHT22;64374;51.482;7.408;2023-02-18T02:51:55;12.20;99.90
4356;DHT22;64374;51.482;7.408;2023-02-18T02:54:27;12.30;99.90
4356;DHT22;64374;51.482;7.408;2023-02-18T02:57:36;12.50;99.90
4356;DHT22;64374;51.482;7.408;2023-02-18T03:00:13;12.50;99.90
4356;DHT22;64374;51.482;7.408;2023-02-18T03:05:49;12.50;99.90
4356;DHT22;64374;51.482;7.408;2023-02-18T03:08:33;12.40;99.90
4356;DHT22;64374;51.482;7.408;2023-02-18T03:11:08;12.40;99.90
4356;DHT22;64374;51.482;7.408;2023-02-18T03:13:49;12.20;99.90
4356;DHT22;64374;51.482;7.408;2023-02-18T03:16:27;12.20;99.90
4356;DHT22;64374;51.482;7.408;2023-02-18T03:19:06;12.30;99.90
4356;DHT22;64374;51.482;7.408;2023-02-18T03:21:41;12.30;99.90
4356;DHT22;64374;51.482;7.408;2023-02-18T03:24:16;12.20;99.90
4356;DHT22;64374;51.482;7.408;2023-02-18T03:26:50;12.10;99.90
4356;DHT22;64374;51.482;7.408;2023-02-18T03:29:40;12.30;99.90
4356;DHT22;64374;51.482;7.408;2023-02-18T03:32:13;11.90;99.90
4356;DHT22;64374;51.482;7.408;2023-02-18T03:34:48;11.90;99.90
4356;DHT22;64374;51.482;7.408;2023-02-18T03:37:20;12.00;99.90
4356;DHT22;64374;51.482;7.408;2023-02-18T03:39:55;12.00;99.90
4356;DHT22;64374;51.482;7.408;2023-02-18T03:42:25;12.00;99.90
4356;DHT22;64374;51.482;7.408;2023-02-18T03:44:54;12.00;99.90
4356;DHT22;64374;51.482;7.408;2023-02-18T03:47:23;12.00;99.90
4356;DHT22;64374;51.482;7.408;2023-02-18T03:49:51;12.00;99.90
4356;DHT22;64374;51.482;7.408;2023-02-18T03:52:21;12.00;99.90
4356;DHT22;64374;51.482;7.408;2023-02-18T03:54:51;12.00;99.90
4356;DHT22;64374;51.482;7.408;2023-02-18T03:57:20;12.00;99.90
4356;DHT22;64374;51.482;7.408;2023-02-18T03:59:51;12.00;99.90
4356;DHT22;64374;51.482;7.408;2023-02-18T04:02:20;12.00;99.90
4356;DHT22;64374;51.482;7.408;2023-02-18T04:04:48;11.90;99.90
4356;DHT22;64374;51.482;7.408;2023-02-18T04:07:17;11.90;99.90
4356;DHT22;64374;51.482;7.408;2023-02-18T04:09:45;12.10;99.90
4356;DHT22;64374;51.482;7.408;2023-02-18T04:12:15;12.10;99.90
4356;DHT22;64374;51.482;7.408;2023-02-18T04:14:43;12.00;99.90
4356;DHT22;64374;51.482;7.408;2023-02-18T04:17:12;11.80;99.90
4356;DHT22;64374;51.482;7.408;2023-02-18T04:19:40;11.80;99.90
4356;DHT22;64374;51.482;7.408;2023-02-18T04:22:08;11.70;99.90
4356;DHT22;64374;51.482;7.408;2023-02-18T04:24:37;11.80;99.90
4356;DHT22;64374;51.482;7.408;2023-02-18T04:27:05;11.90;99.90
4356;DHT22;64374;51.482;7.408;2023-02-18T04:29:35;11.70;99.90
4356;DHT22;64374;51.482;7.408;2023-02-18T04:32:04;11.70;99.90
4356;DHT22;64374;51.482;7.408;2023-02-18T04:34:35;11.80;99.90
4356;DHT22;64374;51.482;7.408;2023-02-18T04:37:04;11.90;99.90
4356;DHT22;64374;51.482;7.408;2023-02-18T04:39:33;12.00;99.90
4356;DHT22;64374;51.482;7.408;2023-02-18T04:42:01;11.80;99.90
4356;DHT22;64374;51.482;7.408;2023-02-18T04:44:37;11.70;99.90
4356;DHT22;64374;51.482;7.408;2023-02-18T04:47:09;11.70;99.90
4356;DHT22;64374;51.482;7.408;2023-02-18T04:49:38;11.90;99.90
4356;DHT22;64374;51.482;7.408;2023-02-18T04:52:06;11.60;99.90
4356;DHT22;64374;51.482;7.408;2023-02-18T04:54:35;11.70;99.90
4356;DHT22;64374;51.482;7.408;2023-02-18T04:57:04;11.90;99.90
4356;DHT22;64374;51.482;7.408;2023-02-18T04:59:33;11.80;99.90
4356;DHT22;64374;51.482;7.408;2023-02-18T05:02:04;11.80;99.90
4356;DHT22;64374;51.482;7.408;2023-02-18T05:04:32;11.70;99.90
4356;DHT22;64374;51.482;7.408;2023-02-18T05:07:00;11.80;99.90
4356;DHT22;64374;51.482;7.408;2023-02-18T05:09:29;11.80;99.90
4356;DHT22;64374;51.482;7.408;2023-02-18T05:11:57;11.80;99.90
4356;DHT22;64374;51.482;7.408;2023-02-18T05:14:25;11.60;99.90
4356;DHT22;64374;51.482;7.408;2023-02-18T05:16:53;11.90;99.90
4356;DHT22;64374;51.482;7.408;2023-02-18T05:19:23;11.70;99.90
4356;DHT22;64374;51.482;7.408;2023-02-18T05:21:52;11.50;99.90
4356;DHT22;64374;51.482;7.408;2023-02-18T05:24:20;11.60;99.90
4356;DHT22;64374;51.482;7.408;2023-02-18T05:26:51;11.50;99.90
4356;DHT22;64374;51.482;7.408;2023-02-18T05:29:19;11.70;99.90
4356;DHT22;64374;51.482;7.408;2023-02-18T05:31:48;11.60;99.90
4356;DHT22;64374;51.482;7.408;2023-02-18T05:34:16;11.60;99.90
4356;DHT22;64374;51.482;7.408;2023-02-18T05:36:46;11.50;99.90
4356;DHT22;64374;51.482;7.408;2023-02-18T05:39:14;11.60;99.90
4356;DHT22;64374;51.482;7.408;2023-02-18T05:41:43;11.60;99.90
4356;DHT22;64374;51.482;7.408;2023-02-18T05:44:11;11.80;99.90
4356;DHT22;64374;51.482;7.408;2023-02-18T05:47:01;11.70;99.90
4356;DHT22;64374;51.482;7.408;2023-02-18T05:49:33;11.60;99.90
4356;DHT22;64374;51.482;7.408;2023-02-18T05:52:05;11.50;99.90
4356;DHT22;64374;51.482;7.408;2023-02-18T05:54:34;11.70;99.90
4356;DHT22;64374;51.482;7.408;2023-02-18T05:57:03;11.70;99.90
4356;DHT22;64374;51.482;7.408;2023-02-18T05:59:32;11.40;99.90
4356;DHT22;64374;51.482;7.408;2023-02-18T06:02:03;11.40;99.90
4356;DHT22;64374;51.482;7.408;2023-02-18T06:04:32;11.40;99.90
4356;DHT22;64374;51.482;7.408;2023-02-18T06:07:01;11.30;99.90
4356;DHT22;64374;51.482;7.408;2023-02-18T06:09:30;11.30;99.90
4356;DHT22;64374;51.482;7.408;2023-02-18T06:11:59;11.40;99.90
4356;DHT22;64374;51.482;7.408;2023-02-18T06:14:28;11.20;99.90
4356;DHT22;64374;51.482;7.408;2023-02-18T06:16:56;11.10;99.90
4356;DHT22;64374;51.482;7.408;2023-02-18T06:19:24;11.20;99.90
4356;DHT22;64374;51.482;7.408;2023-02-18T06:21:53;11.20;99.90
4356;DHT22;64374;51.482;7.408;2023-02-18T06:24:21;11.20;99.90
4356;DHT22;64374;51.482;7.408;2023-02-18T06:26:52;11.30;99.90
4356;DHT22;64374;51.482;7.408;2023-02-18T06:29:19;11.30;99.90
4356;DHT22;64374;51.482;7.408;2023-02-18T06:31:51;11.20;99.90
4356;DHT22;64374;51.482;7.408;2023-02-18T06:34:26;11.30;99.90
4356;DHT22;64374;51.482;7.408;2023-02-18T06:36:55;11.30;99.90
4356;DHT22;64374;51.482;7.408;2023-02-18T06:39:23;11.30;99.90
4356;DHT22;64374;51.482;7.408;2023-02-18T06:41:55;11.30;99.90
4356;DHT22;64374;51.482;7.408;2023-02-18T06:44:23;11.30;99.90
4356;DHT22;64374;51.482;7.408;2023-02-18T06:46:51;11.30;99.90
4356;DHT22;64374;51.482;7.408;2023-02-18T06:49:20;11.20;99.90
4356;DHT22;64374;51.482;7.408;2023-02-18T06:51:48;11.10;99.90
4356;DHT22;64374;51.482;7.408;2023-02-18T06:54:17;11.00;99.90
4356;DHT22;64374;51.482;7.408;2023-02-18T06:56:45;11.10;99.90
4356;DHT22;64374;51.482;7.408;2023-02-18T06:59:15;11.10;99.90
4356;DHT22;64374;51.482;7.408;2023-02-18T07:01:44;11.10;99.90
4356;DHT22;64374;51.482;7.408;2023-02-18T07:04:13;11.10;99.90
4356;DHT22;64374;51.482;7.408;2023-02-18T07:06:41;11.10;99.90
4356;DHT22;64374;51.482;7.408;2023-02-18T07:09:09;11.00;99.90
4356;DHT22;64374;51.482;7.408;2023-02-18T07:11:40;11.00;99.90
4356;DHT22;64374;51.482;7.408;2023-02-18T07:14:08;10.90;99.90
4356;DHT22;64374;51.482;7.408;2023-02-18T07:16:38;11.00;99.90
4356;DHT22;64374;51.482;7.408;2023-02-18T07:19:07;10.90;99.90
4356;DHT22;64374;51.482;7.408;2023-02-18T07:21:38;10.90;99.90
4356;DHT22;64374;51.482;7.408;2023-02-18T07:24:06;11.00;99.90
4356;DHT22;64374;51.482;7.408;2023-02-18T07:26:35;11.00;99.90
4356;DHT22;64374;51.482;7.408;2023-02-18T07:29:04;11.00;99.90
4356;DHT22;64374;51.482;7.408;2023-02-18T07:31:32;10.90;99.90
4356;DHT22;64374;51.482;7.408;2023-02-18T07:34:02;10.90;99.90
4356;DHT22;64374;51.482;7.408;2023-02-18T07:36:31;11.10;99.90
4356;DHT22;64374;51.482;7.408;2023-02-18T07:38:59;11.00;99.90
4356;DHT22;64374;51.482;7.408;2023-02-18T07:41:27;10.90;99.90
4356;DHT22;64374;51.482;7.408;2023-02-18T07:43:58;10.90;99.90
4356;DHT22;64374;51.482;7.408;2023-02-18T07:46:26;11.00;99.90
4356;DHT22;64374;51.482;7.408;2023-02-18T07:48:58;11.00;99.90
4356;DHT22;64374;51.482;7.408;2023-02-18T07:51:27;10.90;99.90
4356;DHT22;64374;51.482;7.408;2023-02-18T07:53:56;10.70;99.90
4356;DHT22;64374;51.482;7.408;2023-02-18T07:56:24;10.80;99.90
4356;DHT22;64374;51.482;7.408;2023-02-18T07:58:53;10.80;99.90
4356;DHT22;64374;51.482;7.408;2023-02-18T08:01:21;10.70;99.90
4356;DHT22;64374;51.482;7.408;2023-02-18T08:03:49;10.70;99.90
4356;DHT22;64374;51.482;7.408;2023-02-18T08:06:21;10.90;99.90
4356;DHT22;64374;51.482;7.408;2023-02-18T08:08:53;11.00;99.90
4356;DHT22;64374;51.482;7.408;2023-02-18T08:11:22;11.00;99.90
4356;DHT22;64374;51.482;7.408;2023-02-18T08:13:50;10.90;99.90
4356;DHT22;64374;51.482;7.408;2023-02-18T08:16:19;10.90;99.90
4356;DHT22;64374;51.482;7.408;2023-02-18T08:18:49;10.80;99.90
4356;DHT22;64374;51.482;7.408;2023-02-18T08:21:22;10.90;99.90
4356;DHT22;64374;51.482;7.408;2023-02-18T08:23:52;11.00;99.90
4356;DHT22;64374;51.482;7.408;2023-02-18T08:26:21;10.80;99.90
4356;DHT22;64374;51.482;7.408;2023-02-18T08:28:49;10.70;99.90
4356;DHT22;64374;51.482;7.408;2023-02-18T08:31:21;10.80;99.90
4356;DHT22;64374;51.482;7.408;2023-02-18T08:33:50;10.80;99.90
4356;DHT22;64374;51.482;7.408;2023-02-18T08:36:18;10.90;99.90
4356;DHT22;64374;51.482;7.408;2023-02-18T08:38:47;10.80;99.90
4356;DHT22;64374;51.482;7.408;2023-02-18T08:41:16;10.70;99.90
4356;DHT22;64374;51.482;7.408;2023-02-18T08:43:46;10.80;99.90
4356;DHT22;64374;51.482;7.408;2023-02-18T08:46:15;10.80;99.90
4356;DHT22;64374;51.482;7.408;2023-02-18T08:48:59;11.00;99.90
4356;DHT22;64374;51.482;7.408;2023-02-18T08:51:27;11.00;99.90
4356;DHT22;64374;51.482;7.408;2023-02-18T08:53:59;11.00;99.90
4356;DHT22;64374;51.482;7.408;2023-02-18T08:56:29;11.20;99.90
4356;DHT22;64374;51.482;7.408;2023-02-18T08:58:58;11.30;99.90
4356;DHT22;64374;51.482;7.408;2023-02-18T09:01:26;11.10;99.90
4356;DHT22;64374;51.482;7.408;2023-02-18T09:03:58;10.90;99.90
4356;DHT22;64374;51.482;7.408;2023-02-18T09:06:26;10.90;99.90
4356;DHT22;64374;51.482;7.408;2023-02-18T09:08:55;10.90;99.90
4356;DHT22;64374;51.482;7.408;2023-02-18T09:11:23;10.80;99.90
4356;DHT22;64374;51.482;7.408;2023-02-18T09:13:53;10.50;99.90
4356;DHT22;64374;51.482;7.408;2023-02-18T09:16:22;10.50;99.90
4356;DHT22;64374;51.482;7.408;2023-02-18T09:18:52;10.40;99.90
4356;DHT22;64374;51.482;7.408;2023-02-18T09:21:22;10.40;99.90
4356;DHT22;64374;51.482;7.408;2023-02-18T09:23:51;10.50;99.90
4356;DHT22;64374;51.482;7.408;2023-02-18T09:26:20;10.50;99.90
4356;DHT22;64374;51.482;7.408;2023-02-18T09:28:50;10.60;99.90
4356;DHT22;64374;51.482;7.408;2023-02-18T09:31:22;10.40;99.90
4356;DHT22;64374;51.482;7.408;2023-02-18T09:33:53;10.40;99.90
4356;DHT22;64374;51.482;7.408;2023-02-18T09:36:26;10.30;99.90
4356;DHT22;64374;51.482;7.408;2023-02-18T09:38:55;10.30;99.90
4356;DHT22;64374;51.482;7.408;2023-02-18T09:41:31;10.60;99.90
4356;DHT22;64374;51.482;7.408;2023-02-18T09:44:05;10.50;99.90
4356;DHT22;64374;51.482;7.408;2023-02-18T09:46:40;10.60;99.90
4356;DHT22;64374;51.482;7.408;2023-02-18T09:49:14;10.60;99.90
4356;DHT22;64374;51.482;7.408;2023-02-18T09:51:43;10.50;99.90
4356;DHT22;64374;51.482;7.408;2023-02-18T09:54:15;10.60;99.90
4356;DHT22;64374;51.482;7.408;2023-02-18T09:56:44;10.60;99.90
4356;DHT22;64374;51.482;7.408;2023-02-18T09:59:17;10.60;99.90
4356;DHT22;64374;51.482;7.408;2023-02-18T10:01:51;10.50;99.90
4356;DHT22;64374;51.482;7.408;2023-02-18T10:04:24;10.60;99.90
4356;DHT22;64374;51.482;7.408;2023-02-18T10:06:56;10.60;99.90
4356;DHT22;64374;51.482;7.408;2023-02-18T10:09:30;10.50;99.90
4356;DHT22;64374;51.482;7.408;2023-02-18T10:12:09;10.70;99.90
4356;DHT22;64374;51.482;7.408;2023-02-18T10:14:42;10.70;99.90
4356;DHT22;64374;51.482;7.408;2023-02-18T10:17:14;10.60;99.90
4356;DHT22;64374;51.482;7.408;2023-02-18T10:19:47;10.70;99.90
4356;DHT22;64374;51.482;7.408;2023-02-18T10:22:17;10.60;99.90
4356;DHT22;64374;51.482;7.408;2023-02-18T10:24:49;10.60;99.90
4356;DHT22;64374;51.482;7.408;2023-02-18T10:27:24;10.80;99.90
4356;DHT22;64374;51.482;7.408;2023-02-18T10:29:54;10.80;99.90
4356;DHT22;64374;51.482;7.408;2023-02-18T10:32:27;10.70;99.90
4356;DHT22;64374;51.482;7.408;2023-02-18T10:35:02;10.60;99.90
4356;DHT22;64374;51.482;7.408;2023-02-18T10:37:44;10.60;99.90
4356;DHT22;64374;51.482;7.408;2023-02-18T10:40:17;10.60;99.90
4356;DHT22;64374;51.482;7.408;2023-02-18T10:43:06;10.40;99.90
4356;DHT22;64374;51.482;7.408;2023-02-18T10:45:45;10.50;99.90
4356;DHT22;64374;51.482;7.408;2023-02-18T10:48:32;10.40;99.90
4356;DHT22;64374;51.482;7.408;2023-02-18T10:51:13;10.70;99.90
4356;DHT22;64374;51.482;7.408;2023-02-18T10:53:43;10.40;99.90
4356;DHT22;64374;51.482;7.408;2023-02-18T10:56:33;10.50;99.90
4356;DHT22;64374;51.482;7.408;2023-02-18T10:59:10;10.40;99.90
4356;DHT22;64374;51.482;7.408;2023-02-18T11:01:42;10.60;99.90
4356;DHT22;64374;51.482;7.408;2023-02-18T11:04:17;10.60;99.90
4356;DHT22;64374;51.482;7.408;2023-02-18T11:06:48;10.70;99.90
4356;DHT22;64374;51.482;7.408;2023-02-18T11:09:26;10.70;99.90
4356;DHT22;64374;51.482;7.408;2023-02-18T11:12:01;10.90;99.90
4356;DHT22;64374;51.482;7.408;2023-02-18T11:14:44;10.70;99.90
4356;DHT22;64374;51.482;7.408;2023-02-18T11:17:21;10.70;99.90
4356;DHT22;64374;51.482;7.408;2023-02-18T11:19:55;10.50;99.90
4356;DHT22;64374;51.482;7.408;2023-02-18T11:22:28;10.60;99.90
4356;DHT22;64374;51.482;7.408;2023-02-18T11:25:01;10.60;99.90
4356;DHT22;64374;51.482;7.408;2023-02-18T11:27:33;10.40;99.90
4356;DHT22;64374;51.482;7.408;2023-02-18T11:30:16;10.40;99.90
4356;DHT22;64374;51.482;7.408;2023-02-18T11:32:50;10.40;99.90
4356;DHT22;64374;51.482;7.408;2023-02-18T11:35:22;10.30;99.90
4356;DHT22;64374;51.482;7.408;2023-02-18T11:37:52;10.40;99.90
4356;DHT22;64374;51.482;7.408;2023-02-18T11:40:24;10.30;99.90
4356;DHT22;64374;51.482;7.408;2023-02-18T11:43:03;10.30;99.90
4356;DHT22;64374;51.482;7.408;2023-02-18T11:45:33;10.40;99.90
4356;DHT22;64374;51.482;7.408;2023-02-18T11:48:07;10.30;99.90
4356;DHT22;64374;51.482;7.408;2023-02-18T11:50:38;10.30;99.90
4356;DHT22;64374;51.482;7.408;2023-02-18T11:53:27;10.30;99.90
4356;DHT22;64374;51.482;7.408;2023-02-18T11:55:57;10.30;99.90
4356;DHT22;64374;51.482;7.408;2023-02-18T11:58:36;10.50;99.90
4356;DHT22;64374;51.482;7.408;2023-02-18T12:01:11;10.30;99.90
4356;DHT22;64374;51.482;7.408;2023-02-18T12:03:47;10.50;99.90
4356;DHT22;64374;51.482;7.408;2023-02-18T12:06:23;10.40;99.90
4356;DHT22;64374;51.482;7.408;2023-02-18T12:08:56;10.30;99.90
4356;DHT22;64374;51.482;7.408;2023-02-18T12:11:32;10.20;99.90
4356;DHT22;64374;51.482;7.408;2023-02-18T12:14:02;10.40;99.90
4356;DHT22;64374;51.482;7.408;2023-02-18T12:16:36;10.50;99.90
4356;DHT22;64374;51.482;7.408;2023-02-18T12:19:22;10.50;99.90
4356;DHT22;64374;51.482;7.408;2023-02-18T12:22:01;10.60;99.90
4356;DHT22;64374;51.482;7.408;2023-02-18T12:24:47;10.40;99.90
4356;DHT22;64374;51.482;7.408;2023-02-18T12:27:27;10.50;99.90
4356;DHT22;64374;51.482;7.408;2023-02-18T12:30:17;10.50;99.90
4356;DHT22;64374;51.482;7.408;2023-02-18T12:32:55;10.50;99.90
4356;DHT22;64374;51.482;7.408;2023-02-18T12:35:39;10.70;99.90
4356;DHT22;64374;51.482;7.408;2023-02-18T12:38:40;10.50;99.90
4356;DHT22;64374;51.482;7.408;2023-02-18T12:41:29;10.70;99.90
4356;DHT22;64374;51.482;7.408;2023-02-18T12:44:23;10.60;99.90
4356;DHT22;64374;51.482;7.408;2023-02-18T12:50:02;10.60;99.90
4356;DHT22;64374;51.482;7.408;2023-02-18T12:52:46;10.60;99.90
4356;DHT22;64374;51.482;7.408;2023-02-18T12:55:40;10.80;99.90
4356;DHT22;64374;51.482;7.408;2023-02-18T12:58:22;10.80;99.90
4356;DHT22;64374;51.482;7.408;2023-02-18T13:01:12;10.90;99.90
4356;DHT22;64374;51.482;7.408;2023-02-18T13:07:25;10.80;99.90
4356;DHT22;64374;51.482;7.408;2023-02-18T13:10:09;10.50;99.90
4356;DHT22;64374;51.482;7.408;2023-02-18T13:12:42;10.70;99.90
4356;DHT22;64374;51.482;7.408;2023-02-18T13:15:18;10.70;99.90
4356;DHT22;64374;51.482;7.408;2023-02-18T13:17:49;10.80;99.90
4356;DHT22;64374;51.482;7.408;2023-02-18T13:20:21;10.80;99.90
4356;DHT22;64374;51.482;7.408;2023-02-18T13:22:52;10.80;99.90
4356;DHT22;64374;51.482;7.408;2023-02-18T13:25:21;11.00;99.90
4356;DHT22;64374;51.482;7.408;2023-02-18T13:27:57;10.80;99.90
4356;DHT22;64374;51.482;7.408;2023-02-18T13:30:37;10.60;99.90
4356;DHT22;64374;51.482;7.408;2023-02-18T13:33:15;10.90;99.90
4356;DHT22;64374;51.482;7.408;2023-02-18T13:35:48;11.00;99.90
4356;DHT22;64374;51.482;7.408;2023-02-18T13:38:31;10.80;99.90
4356;DHT22;64374;51.482;7.408;2023-02-18T13:41:08;10.90;99.90
4356;DHT22;64374;51.482;7.408;2023-02-18T13:43:37;10.80;99.90
4356;DHT22;64374;51.482;7.408;2023-02-18T13:46:09;10.80;99.90
4356;DHT22;64374;51.482;7.408;2023-02-18T13:48:46;10.70;99.90
4356;DHT22;64374;51.482;7.408;2023-02-18T13:51:28;10.70;99.90
4356;DHT22;64374;51.482;7.408;2023-02-18T13:54:03;10.70;99.90
4356;DHT22;64374;51.482;7.408;2023-02-18T13:56:38;10.80;99.90
4356;DHT22;64374;51.482;7.408;2023-02-18T13:59:14;10.70;99.90
4356;DHT22;64374;51.482;7.408;2023-02-18T14:01:47;10.70;99.90
4356;DHT22;64374;51.482;7.408;2023-02-18T14:04:47;10.70;99.90
4356;DHT22;64374;51.482;7.408;2023-02-18T14:07:43;10.60;99.90
4356;DHT22;64374;51.482;7.408;2023-02-18T14:10:30;10.80;99.90
4356;DHT22;64374;51.482;7.408;2023-02-18T14:13:24;10.80;99.90
4356;DHT22;64374;51.482;7.408;2023-02-18T14:16:07;10.90;99.90
4356;DHT22;64374;51.482;7.408;2023-02-18T14:19:00;10.80;99.90
4356;DHT22;64374;51.482;7.408;2023-02-18T14:21:40;10.90;99.90
4356;DHT22;64374;51.482;7.408;2023-02-18T14:24:11;10.90;99.90
4356;DHT22;64374;51.482;7.408;2023-02-18T14:26:44;10.90;99.90
4356;DHT22;64374;51.482;7.408;2023-02-18T14:29:18;11.00;99.90
4356;DHT22;64374;51.482;7.408;2023-02-18T14:32:09;10.90;99.90
4356;DHT22;64374;51.482;7.408;2023-02-18T14:35:14;10.90;99.90
4356;DHT22;64374;51.482;7.408;2023-02-18T14:38:15;10.90;99.90
4356;DHT22;64374;51.482;7.408;2023-02-18T14:41:02;11.10;99.90
4356;DHT22;64374;51.482;7.408;2023-02-18T14:44:01;11.30;99.90
4356;DHT22;64374;51.482;7.408;2023-02-18T14:46:50;11.20;99.90
4356;DHT22;64374;51.482;7.408;2023-02-18T14:49:35;11.20;99.90
4356;DHT22;64374;51.482;7.408;2023-02-18T14:52:13;11.10;99.90
4356;DHT22;64374;51.482;7.408;2023-02-18T14:54:45;10.90;99.90
4356;DHT22;64374;51.482;7.408;2023-02-18T14:57:16;11.00;99.90
4356;DHT22;64374;51.482;7.408;2023-02-18T14:59:47;11.20;99.90
4356;DHT22;64374;51.482;7.408;2023-02-18T15:02:19;11.20;99.90
4356;DHT22;64374;51.482;7.408;2023-02-18T15:04:50;10.90;99.90
4356;DHT22;64374;51.482;7.408;2023-02-18T15:07:19;11.00;99.90
4356;DHT22;64374;51.482;7.408;2023-02-18T15:09:51;11.10;99.90
4356;DHT22;64374;51.482;7.408;2023-02-18T15:12:22;11.00;99.90
4356;DHT22;64374;51.482;7.408;2023-02-18T15:14:52;11.00;99.90
4356;DHT22;64374;51.482;7.408;2023-02-18T15:17:24;10.90;99.90
4356;DHT22;64374;51.482;7.408;2023-02-18T15:19:55;10.90;99.90
4356;DHT22;64374;51.482;7.408;2023-02-18T15:22:26;11.10;99.90
4356;DHT22;64374;51.482;7.408;2023-02-18T15:25:00;11.10;99.90
4356;DHT22;64374;51.482;7.408;2023-02-18T15:27:32;11.20;99.90
4356;DHT22;64374;51.482;7.408;2023-02-18T15:30:15;11.10;99.90
4356;DHT22;64374;51.482;7.408;2023-02-18T15:32:48;11.30;99.90
4356;DHT22;64374;51.482;7.408;2023-02-18T15:35:21;11.30;99.90
4356;DHT22;64374;51.482;7.408;2023-02-18T15:37:53;11.30;99.90
4356;DHT22;64374;51.482;7.408;2023-02-18T15:40:23;11.40;99.90
4356;DHT22;64374;51.482;7.408;2023-02-18T15:42:56;11.40;99.90
4356;DHT22;64374;51.482;7.408;2023-02-18T15:45:29;11.40;99.90
4356;DHT22;64374;51.482;7.408;2023-02-18T15:48:00;11.50;99.90
4356;DHT22;64374;51.482;7.408;2023-02-18T15:50:33;11.40;99.90
4356;DHT22;64374;51.482;7.408;2023-02-18T15:53:05;11.40;99.90
4356;DHT22;64374;51.482;7.408;2023-02-18T15:55:38;11.50;99.90
4356;DHT22;64374;51.482;7.408;2023-02-18T15:58:13;11.40;99.90
4356;DHT22;64374;51.482;7.408;2023-02-18T16:00:48;11.30;99.90
4356;DHT22;64374;51.482;7.408;2023-02-18T16:03:21;11.30;99.90
4356;DHT22;64374;51.482;7.408;2023-02-18T16:06:09;11.40;99.90
4356;DHT22;64374;51.482;7.408;2023-02-18T16:08:38;11.40;99.90
4356;DHT22;64374;51.482;7.408;2023-02-18T16:11:09;11.30;99.90
4356;DHT22;64374;51.482;7.408;2023-02-18T16:13:45;11.60;99.90
4356;DHT22;64374;51.482;7.408;2023-02-18T16:16:22;11.80;99.90
4356;DHT22;64374;51.482;7.408;2023-02-18T16:18:52;11.70;99.90
4356;DHT22;64374;51.482;7.408;2023-02-18T16:21:29;11.60;99.90
4356;DHT22;64374;51.482;7.408;2023-02-18T16:24:01;11.50;99.90
4356;DHT22;64374;51.482;7.408;2023-02-18T16:26:38;11.60;99.90
4356;DHT22;64374;51.482;7.408;2023-02-18T16:29:11;11.50;99.90
4356;DHT22;64374;51.482;7.408;2023-02-18T16:31:40;11.50;99.90
4356;DHT22;64374;51.482;7.408;2023-02-18T16:34:09;11.40;99.90
4356;DHT22;64374;51.482;7.408;2023-02-18T16:36:38;11.40;99.90
4356;DHT22;64374;51.482;7.408;2023-02-18T16:39:28;11.30;99.90
4356;DHT22;64374;51.482;7.408;2023-02-18T16:41:58;11.40;99.90